createdAt,value
2022-11-16T00:01:13.428Z,15.13
2022-11-16T00:03:40.813Z,15.05
2022-11-16T00:06:08.397Z,14.62
2022-11-16T00:08:36.849Z,14.23
2022-11-16T00:11:11.796Z,14.35
2022-11-16T00:13:39.477Z,14.67
2022-11-16T00:16:07.605Z,14.09
2022-11-16T00:18:35.111Z,13.63
2022-11-16T00:21:03.886Z,13.70
2022-11-16T00:23:31.377Z,13.76
2022-11-16T00:26:04.477Z,14.00
2022-11-16T00:28:32.132Z,13.51
2022-11-16T00:31:02.958Z,13.65
2022-11-16T00:33:30.228Z,14.39
2022-11-16T00:35:57.781Z,14.24
2022-11-16T00:38:24.901Z,14.75
2022-11-16T00:40:52.024Z,14.21
2022-11-16T00:43:19.456Z,14.19
2022-11-16T00:45:46.575Z,13.21
2022-11-16T00:48:13.690Z,13.59
2022-11-16T00:50:41.122Z,13.57
2022-11-16T00:53:10.480Z,14.10
2022-11-16T00:55:37.742Z,14.63
2022-11-16T00:58:05.158Z,14.54
2022-11-16T01:00:32.489Z,14.42
2022-11-16T01:02:59.601Z,14.09
2022-11-16T01:05:26.998Z,14.27
2022-11-16T01:07:54.441Z,13.91
2022-11-16T01:10:22.651Z,13.71
2022-11-16T01:12:50.644Z,13.43
2022-11-16T01:15:18.576Z,12.92
2022-11-16T01:17:45.744Z,14.19
2022-11-16T01:20:14.548Z,14.35
2022-11-16T01:22:41.779Z,13.34
2022-11-16T01:25:09.419Z,13.35
2022-11-16T01:27:36.984Z,13.48
2022-11-16T01:30:05.536Z,13.72
2022-11-16T01:32:33.777Z,13.79
2022-11-16T01:35:01.158Z,14.09
2022-11-16T01:37:31.529Z,13.51
2022-11-16T01:39:58.874Z,13.21
2022-11-16T01:42:27.370Z,13.47
2022-11-16T01:44:59.437Z,13.63
2022-11-16T01:47:27.034Z,13.78
2022-11-16T01:49:56.614Z,14.29
2022-11-16T01:52:27.030Z,13.31
2022-11-16T01:54:54.608Z,14.04
2022-11-16T01:57:24.450Z,13.98
2022-11-16T02:00:01.284Z,14.01
2022-11-16T02:02:29.778Z,14.17
2022-11-16T02:04:57.181Z,14.27
2022-11-16T02:07:26.102Z,14.69
2022-11-16T02:09:58.899Z,14.09
2022-11-16T02:12:45.060Z,13.83
2022-11-16T02:15:25.367Z,14.39
2022-11-16T02:18:12.364Z,14.00
2022-11-16T02:20:47.703Z,14.80
2022-11-16T02:23:32.858Z,14.39
2022-11-16T02:26:05.394Z,14.73
2022-11-16T02:28:39.651Z,14.78
2022-11-16T02:31:07.367Z,14.69
2022-11-16T02:33:36.695Z,15.05
2022-11-16T02:36:05.043Z,15.16
2022-11-16T02:38:33.126Z,14.85
2022-11-16T02:41:05.283Z,14.80
2022-11-16T02:43:37.475Z,15.15
2022-11-16T02:46:05.905Z,15.05
2022-11-16T02:48:41.060Z,15.18
2022-11-16T02:51:08.445Z,14.72
2022-11-16T02:53:50.181Z,13.83
2022-11-16T02:56:17.341Z,14.39
2022-11-16T02:58:44.756Z,14.92
2022-11-16T03:01:15.929Z,13.81
2022-11-16T03:03:43.004Z,14.82
2022-11-16T03:06:14.257Z,14.38
2022-11-16T03:08:52.405Z,15.06
2022-11-16T03:11:38.521Z,14.86
2022-11-16T03:14:07.975Z,15.52
2022-11-16T03:16:37.144Z,14.91
2022-11-16T03:19:06.049Z,14.64
2022-11-16T03:21:38.080Z,14.41
2022-11-16T03:24:08.072Z,13.83
2022-11-16T03:26:43.611Z,14.47
2022-11-16T03:29:18.305Z,15.34
2022-11-16T03:31:46.757Z,15.32
2022-11-16T03:34:16.290Z,14.67
2022-11-16T03:36:43.622Z,14.82
2022-11-16T03:39:12.081Z,14.13
2022-11-16T03:41:43.275Z,14.04
2022-11-16T03:44:10.703Z,13.17
2022-11-16T03:46:39.144Z,13.49
2022-11-16T03:49:07.698Z,12.73
2022-11-16T03:51:35.575Z,12.24
2022-11-16T03:54:03.053Z,12.86
2022-11-16T03:56:31.433Z,12.77
2022-11-16T03:58:58.558Z,13.68
2022-11-16T04:01:25.751Z,13.05
2022-11-16T04:03:53.672Z,13.68
2022-11-16T04:06:39.254Z,13.29
2022-11-16T04:09:26.481Z,13.28
2022-11-16T04:12:12.210Z,12.60
2022-11-16T04:15:02.771Z,12.51
2022-11-16T04:17:49.836Z,13.37
2022-11-16T04:20:35.785Z,13.85
2022-11-16T04:23:29.832Z,13.82
2022-11-16T04:25:57.346Z,13.92
2022-11-16T04:28:26.176Z,14.23
2022-11-16T04:31:14.619Z,14.15
2022-11-16T04:34:02.740Z,13.99
2022-11-16T04:36:48.729Z,13.77
2022-11-16T04:39:16.519Z,14.07
2022-11-16T04:42:02.787Z,14.20
2022-11-16T04:44:50.517Z,14.54
2022-11-16T04:47:17.878Z,13.73
2022-11-16T04:49:46.622Z,13.46
2022-11-16T04:52:13.795Z,13.44
2022-11-16T04:54:40.989Z,13.53
2022-11-16T04:57:08.810Z,13.69
2022-11-16T04:59:36.093Z,14.07
2022-11-16T05:02:09.333Z,14.37
2022-11-16T05:04:41.576Z,14.18
2022-11-16T05:07:12.456Z,13.61
2022-11-16T05:09:44.105Z,14.03
2022-11-16T05:12:12.160Z,13.69
2022-11-16T05:14:39.568Z,13.82
2022-11-16T05:17:06.904Z,13.44
2022-11-16T05:19:52.717Z,14.06
2022-11-16T05:22:21.610Z,14.29
2022-11-16T05:24:49.485Z,13.57
2022-11-16T05:27:16.891Z,14.33
2022-11-16T05:29:44.612Z,14.44
2022-11-16T05:32:12.980Z,13.80
2022-11-16T05:34:40.287Z,13.17
2022-11-16T05:37:07.949Z,13.39
2022-11-16T05:39:35.104Z,12.51
2022-11-16T05:42:02.296Z,12.77
2022-11-16T05:44:29.708Z,13.77
2022-11-16T05:46:57.127Z,12.94
2022-11-16T05:49:24.244Z,12.71
2022-11-16T05:51:52.499Z,12.78
2022-11-16T05:54:20.748Z,13.52
2022-11-16T05:56:48.764Z,13.74
2022-11-16T05:59:18.445Z,13.95
2022-11-16T06:01:47.146Z,14.18
2022-11-16T06:04:14.668Z,13.85
2022-11-16T06:06:41.941Z,14.01
2022-11-16T06:09:10.844Z,14.09
2022-11-16T06:11:38.436Z,14.01
2022-11-16T06:14:05.887Z,14.35
2022-11-16T06:16:33.355Z,13.56
2022-11-16T06:19:01.277Z,14.45
2022-11-16T06:21:28.830Z,14.27
2022-11-16T06:23:56.432Z,15.07
2022-11-16T06:26:24.004Z,15.32
2022-11-16T06:28:51.281Z,15.35
2022-11-16T06:31:18.500Z,15.55
2022-11-16T06:33:47.325Z,14.00
2022-11-16T06:36:14.881Z,15.01
2022-11-16T06:38:42.489Z,14.15
2022-11-16T06:41:10.189Z,14.16
2022-11-16T06:43:38.824Z,14.55
2022-11-16T06:46:06.202Z,14.94
2022-11-16T06:48:33.989Z,14.59
2022-11-16T06:51:03.388Z,14.64
2022-11-16T06:53:30.557Z,14.31
2022-11-16T06:56:05.151Z,14.53
2022-11-16T06:58:34.324Z,14.67
2022-11-16T07:01:06.543Z,14.68
2022-11-16T07:03:33.714Z,15.22
2022-11-16T07:06:05.910Z,15.21
2022-11-16T07:08:33.738Z,15.30
2022-11-16T07:11:04.363Z,13.81
2022-11-16T07:13:33.704Z,13.97
2022-11-16T07:16:05.189Z,13.93
2022-11-16T07:18:34.037Z,15.18
2022-11-16T07:21:11.669Z,15.26
2022-11-16T07:23:39.136Z,15.55
2022-11-16T07:26:07.560Z,15.50
2022-11-16T07:28:35.759Z,15.56
2022-11-16T07:31:03.717Z,15.04
2022-11-16T07:33:31.285Z,14.07
2022-11-16T07:36:08.367Z,14.35
2022-11-16T07:38:36.397Z,13.98
2022-11-16T07:41:04.466Z,14.32
2022-11-16T07:43:35.064Z,13.59
2022-11-16T07:48:54.275Z,12.42
2022-11-16T07:51:24.208Z,12.89
2022-11-16T07:53:57.329Z,13.35
2022-11-16T07:56:25.021Z,12.31
2022-11-16T07:58:52.526Z,12.72
2022-11-16T08:01:20.586Z,13.21
2022-11-16T08:03:48.427Z,12.86
2022-11-16T08:06:23.770Z,12.99
2022-11-16T08:08:56.692Z,13.05
2022-11-16T08:11:25.955Z,13.77
2022-11-16T08:13:53.415Z,13.53
2022-11-16T08:16:21.619Z,14.00
2022-11-16T08:18:49.565Z,14.08
2022-11-16T08:21:17.766Z,13.61
2022-11-16T08:23:45.242Z,13.32
2022-11-16T08:26:16.589Z,13.34
2022-11-16T08:28:45.950Z,13.86
2022-11-16T08:31:17.225Z,13.63
2022-11-16T08:33:45.179Z,14.21
2022-11-16T08:36:17.124Z,13.57
2022-11-16T08:38:45.373Z,13.14
2022-11-16T08:41:13.029Z,13.58
2022-11-16T08:43:40.553Z,13.98
2022-11-16T08:46:08.824Z,14.07
2022-11-16T08:48:37.120Z,14.51
2022-11-16T08:51:21.355Z,14.09
2022-11-16T08:53:49.922Z,14.08
2022-11-16T08:56:18.306Z,14.38
2022-11-16T08:58:51.376Z,14.37
2022-11-16T09:01:22.624Z,13.78
2022-11-16T09:03:52.141Z,13.79
2022-11-16T09:06:19.394Z,14.07
2022-11-16T09:08:46.978Z,14.25
2022-11-16T09:11:16.019Z,14.63
2022-11-16T09:13:43.810Z,14.11
2022-11-16T09:16:15.977Z,13.72
2022-11-16T09:18:43.862Z,14.40
2022-11-16T09:21:11.252Z,13.32
2022-11-16T09:23:38.340Z,13.44
2022-11-16T09:26:05.597Z,13.99
2022-11-16T09:28:33.294Z,13.83
2022-11-16T09:31:02.063Z,14.60
2022-11-16T09:33:30.293Z,14.18
2022-11-16T09:36:07.079Z,14.15
2022-11-16T09:38:54.412Z,14.35
2022-11-16T09:41:40.636Z,14.36
2022-11-16T09:44:13.859Z,13.59
2022-11-16T09:46:41.815Z,13.82
2022-11-16T09:49:17.679Z,13.62
2022-11-16T09:51:46.649Z,13.60
2022-11-16T09:54:39.975Z,13.05
2022-11-16T09:57:12.358Z,13.03
2022-11-16T09:59:45.023Z,12.82
2022-11-16T10:02:32.626Z,13.07
2022-11-16T10:05:04.067Z,13.10
2022-11-16T10:07:38.560Z,13.43
2022-11-16T10:10:06.304Z,13.30
2022-11-16T10:12:46.319Z,13.52
2022-11-16T10:15:19.836Z,13.72
2022-11-16T10:18:05.682Z,13.28
2022-11-16T10:20:51.906Z,13.07
2022-11-16T10:23:34.296Z,13.24
2022-11-16T10:26:23.769Z,13.41
2022-11-16T10:28:53.127Z,13.43
2022-11-16T10:31:26.800Z,13.58
2022-11-16T10:33:54.317Z,12.94
2022-11-16T10:36:21.666Z,13.50
2022-11-16T10:38:48.953Z,14.59
2022-11-16T10:41:19.379Z,14.65
2022-11-16T10:43:46.800Z,14.00
2022-11-16T10:46:32.926Z,13.99
2022-11-16T10:49:00.283Z,13.21
2022-11-16T10:51:27.419Z,14.75
2022-11-16T10:53:55.744Z,15.01
2022-11-16T10:56:23.084Z,14.50
2022-11-16T10:59:00.670Z,14.38
2022-11-16T11:01:41.263Z,14.68
2022-11-16T11:04:24.598Z,14.73
2022-11-16T11:06:55.713Z,14.19
2022-11-16T11:09:32.903Z,14.14
2022-11-16T11:12:35.626Z,14.86
2022-11-16T11:15:12.106Z,14.49
2022-11-16T11:17:40.369Z,14.21
2022-11-16T11:20:07.600Z,15.44
2022-11-16T11:22:47.104Z,15.44
2022-11-16T11:25:20.644Z,13.93
2022-11-16T11:27:47.828Z,13.92
2022-11-16T11:30:19.907Z,14.12
2022-11-16T11:32:47.283Z,14.45
2022-11-16T11:35:24.003Z,13.98
2022-11-16T11:37:51.294Z,14.11
2022-11-16T11:40:19.997Z,13.75
2022-11-16T11:43:05.511Z,14.12
2022-11-16T11:45:39.458Z,14.05
2022-11-16T11:48:30.109Z,13.73
2022-11-16T11:51:16.560Z,14.33
2022-11-16T11:53:51.933Z,14.26
2022-11-16T11:56:19.318Z,13.88
2022-11-16T11:58:46.612Z,13.97
2022-11-16T12:01:32.210Z,14.45
2022-11-16T12:04:08.892Z,13.90
2022-11-16T12:06:54.667Z,13.90
2022-11-16T12:09:22.009Z,14.41
2022-11-16T12:12:13.321Z,14.45
2022-11-16T12:14:42.368Z,14.53
2022-11-16T12:17:14.720Z,14.80
2022-11-16T12:19:49.139Z,15.36
2022-11-16T12:22:16.232Z,14.98
2022-11-16T12:25:02.402Z,15.26
2022-11-16T12:27:38.432Z,15.30
2022-11-16T12:30:13.675Z,16.04
2022-11-16T12:32:48.204Z,15.89
2022-11-16T12:35:24.691Z,16.23
2022-11-16T12:38:10.517Z,16.29
2022-11-16T12:40:40.830Z,16.31
2022-11-16T12:43:18.805Z,15.96
2022-11-16T12:45:49.197Z,15.40
2022-11-16T12:48:19.460Z,15.78
2022-11-16T12:50:50.439Z,15.96
2022-11-16T12:53:23.716Z,15.91
2022-11-16T12:56:09.900Z,15.59
2022-11-16T12:58:45.942Z,15.35
2022-11-16T13:01:33.570Z,15.28
2022-11-16T13:04:01.721Z,15.62
2022-11-16T13:06:31.063Z,15.12
2022-11-16T13:09:11.494Z,15.14
2022-11-16T13:11:40.326Z,15.16
2022-11-16T13:14:10.311Z,15.30
2022-11-16T13:16:37.409Z,15.35
2022-11-16T13:19:05.665Z,15.38
2022-11-16T13:21:38.553Z,15.65
2022-11-16T13:24:18.142Z,16.18
2022-11-16T13:26:48.558Z,15.95
2022-11-16T13:29:22.443Z,15.53
2022-11-16T13:31:52.843Z,15.64
2022-11-16T13:34:27.533Z,15.54
2022-11-16T13:36:54.725Z,15.92
2022-11-16T13:39:42.161Z,16.40
2022-11-16T13:42:12.582Z,17.13
2022-11-16T13:44:40.083Z,15.99
2022-11-16T13:47:07.410Z,16.06
2022-11-16T13:49:41.477Z,16.56
2022-11-16T13:52:23.558Z,16.27
2022-11-16T13:54:53.434Z,16.26
2022-11-16T13:57:29.768Z,16.67
2022-11-16T14:00:17.077Z,17.22
2022-11-16T14:02:44.501Z,16.47
2022-11-16T14:05:30.405Z,16.97
2022-11-16T14:07:57.842Z,16.32
2022-11-16T14:10:33.940Z,16.39
2022-11-16T14:13:01.836Z,17.00
2022-11-16T14:15:30.043Z,17.14
2022-11-16T14:17:57.782Z,16.86
2022-11-16T14:20:31.147Z,17.10
2022-11-16T14:23:11.458Z,16.88
2022-11-16T14:26:01.964Z,16.98
2022-11-16T14:28:39.121Z,17.27
2022-11-16T14:31:08.828Z,17.57
2022-11-16T14:33:36.435Z,17.06
2022-11-16T14:36:05.042Z,17.05
2022-11-16T14:38:33.248Z,16.95
2022-11-16T14:41:01.228Z,17.28
2022-11-16T14:43:30.422Z,17.26
2022-11-16T14:46:08.603Z,17.20
2022-11-16T14:48:41.957Z,16.68
2022-11-16T14:51:20.580Z,16.72
2022-11-16T14:53:52.732Z,16.73
2022-11-16T14:56:20.166Z,16.74
2022-11-16T14:59:05.514Z,17.23
2022-11-16T15:01:38.232Z,16.79
2022-11-16T15:04:08.862Z,16.97
2022-11-16T15:06:43.852Z,16.58
2022-11-16T15:09:13.836Z,17.03
2022-11-16T15:12:00.106Z,17.14
2022-11-16T15:14:29.541Z,16.71
2022-11-16T15:16:57.651Z,16.87
2022-11-16T15:19:24.838Z,17.23
2022-11-16T15:21:52.745Z,17.20
2022-11-16T15:24:38.293Z,17.44
2022-11-16T15:27:08.270Z,17.61
2022-11-16T15:29:35.666Z,17.79
2022-11-16T15:32:02.838Z,17.18
2022-11-16T15:34:29.945Z,17.34
2022-11-16T15:36:57.320Z,17.09
2022-11-16T15:39:24.521Z,17.16
2022-11-16T15:41:51.617Z,17.52
2022-11-16T15:44:19.626Z,17.32
2022-11-16T15:46:50.771Z,17.55
2022-11-16T15:49:36.953Z,17.65
2022-11-16T15:52:04.863Z,17.26
2022-11-16T15:54:51.316Z,17.66
2022-11-16T15:57:18.948Z,17.85
2022-11-16T15:59:49.585Z,18.02
2022-11-16T16:02:20.357Z,17.87
2022-11-16T16:04:47.753Z,18.14
2022-11-16T16:07:33.848Z,18.17
2022-11-16T16:10:19.360Z,18.42
2022-11-16T16:12:49.622Z,18.21
2022-11-16T16:15:29.941Z,18.22
2022-11-16T16:17:57.518Z,17.58
2022-11-16T16:20:25.826Z,17.92
2022-11-16T16:22:56.201Z,17.74
2022-11-16T16:25:30.866Z,17.59
2022-11-16T16:27:58.866Z,17.23
2022-11-16T16:30:26.172Z,17.56
2022-11-16T16:32:54.000Z,17.04
2022-11-16T16:35:22.994Z,17.20
2022-11-16T16:37:50.732Z,17.71
2022-11-16T16:40:18.350Z,17.61
2022-11-16T16:42:48.330Z,17.98
2022-11-16T16:45:16.874Z,17.54
2022-11-16T16:47:44.137Z,17.27
2022-11-16T16:50:11.528Z,18.03
2022-11-16T16:52:40.024Z,17.63
2022-11-16T16:55:07.453Z,17.57
2022-11-16T16:57:34.918Z,17.55
2022-11-16T17:00:02.261Z,17.51
2022-11-16T17:02:29.452Z,17.44
2022-11-16T17:04:57.270Z,16.75
2022-11-16T17:07:25.408Z,16.57
2022-11-16T17:09:52.723Z,16.94
2022-11-16T17:12:20.299Z,17.42
2022-11-16T17:14:51.884Z,17.02
2022-11-16T17:17:19.794Z,16.94
2022-11-16T17:19:47.144Z,16.84
2022-11-16T17:22:14.858Z,16.50
2022-11-16T17:24:42.796Z,16.30
2022-11-16T17:27:10.269Z,16.71
2022-11-16T17:29:37.622Z,16.19
2022-11-16T17:32:05.389Z,16.24
2022-11-16T17:34:33.091Z,16.49
2022-11-16T17:37:00.557Z,16.67
2022-11-16T17:39:28.286Z,16.49
2022-11-16T17:41:55.962Z,16.28
2022-11-16T17:44:23.741Z,16.58
2022-11-16T17:46:51.280Z,16.23
2022-11-16T17:49:18.801Z,16.22
2022-11-16T17:51:47.432Z,16.84
2022-11-16T17:54:15.997Z,16.98
2022-11-16T17:56:43.248Z,16.50
2022-11-16T17:59:10.827Z,16.53
2022-11-16T18:01:38.851Z,16.41
2022-11-16T18:04:06.866Z,16.44
2022-11-16T18:06:35.499Z,15.93
2022-11-16T18:09:03.570Z,16.54
2022-11-16T18:11:31.214Z,16.72
2022-11-16T18:14:00.798Z,16.40
2022-11-16T18:16:29.155Z,16.41
2022-11-16T18:18:58.469Z,16.58
2022-11-16T18:21:26.369Z,16.74
2022-11-16T18:23:53.732Z,16.95
2022-11-16T18:26:22.298Z,16.43
2022-11-16T18:28:50.511Z,16.24
2022-11-16T18:31:19.346Z,16.48
2022-11-16T18:33:50.261Z,16.62
2022-11-16T18:36:18.501Z,16.61
2022-11-16T18:38:46.250Z,17.35
2022-11-16T18:41:14.192Z,17.19
2022-11-16T18:43:56.271Z,16.95
2022-11-16T18:46:26.010Z,16.66
2022-11-16T18:48:53.865Z,17.22
2022-11-16T18:51:22.329Z,17.42
2022-11-16T18:53:50.757Z,17.38
2022-11-16T18:56:18.638Z,17.11
2022-11-16T18:58:51.500Z,17.15
2022-11-16T19:01:21.210Z,16.93
2022-11-16T19:03:49.079Z,16.77
2022-11-16T19:06:18.261Z,17.19
2022-11-16T19:08:53.604Z,17.15
2022-11-16T19:11:22.995Z,17.16
2022-11-16T19:13:57.935Z,16.72
2022-11-16T19:16:25.600Z,16.59
2022-11-16T19:18:53.042Z,16.59
2022-11-16T19:21:20.304Z,16.57
2022-11-16T19:23:49.334Z,16.22
2022-11-16T19:26:18.200Z,15.87
2022-11-16T19:28:47.509Z,16.00
2022-11-16T19:31:19.545Z,14.64
2022-11-16T19:33:47.703Z,15.37
2022-11-16T19:36:20.699Z,15.51
2022-11-16T19:38:49.119Z,14.86
2022-11-16T19:41:17.276Z,15.35
2022-11-16T19:43:45.750Z,15.62
2022-11-16T19:46:18.926Z,15.34
2022-11-16T19:48:47.623Z,15.36
2022-11-16T19:51:16.697Z,15.84
2022-11-16T19:53:44.797Z,15.05
2022-11-16T19:56:13.180Z,15.04
2022-11-16T19:58:41.474Z,15.55
2022-11-16T20:01:13.682Z,14.68
2022-11-16T20:03:42.513Z,15.50
2022-11-16T20:06:13.597Z,16.27
2022-11-16T20:08:41.799Z,16.25
2022-11-16T20:11:13.046Z,16.39
2022-11-16T20:13:43.285Z,16.15
2022-11-16T20:16:12.034Z,15.76
2022-11-16T20:18:39.856Z,15.71
2022-11-16T20:21:08.303Z,15.82
2022-11-16T20:23:38.260Z,15.79
2022-11-16T20:26:09.402Z,14.97
2022-11-16T20:28:37.846Z,15.19
2022-11-16T20:31:13.203Z,14.64
2022-11-16T20:33:40.967Z,14.88
2022-11-16T20:36:09.167Z,14.70
2022-11-16T20:38:37.219Z,14.96
2022-11-16T20:41:11.305Z,15.26
2022-11-16T20:43:42.073Z,15.43
2022-11-16T20:46:10.709Z,15.53
2022-11-16T20:48:38.575Z,15.66
2022-11-16T20:51:06.388Z,15.15
2022-11-16T20:53:34.235Z,15.70
2022-11-16T20:56:04.996Z,15.52
2022-11-16T20:58:32.674Z,15.05
2022-11-16T21:01:01.014Z,15.06
2022-11-16T21:03:28.494Z,13.93
2022-11-16T21:05:55.831Z,14.55
2022-11-16T21:08:24.402Z,13.75
2022-11-16T21:10:51.715Z,13.99
2022-11-16T21:13:37.818Z,14.53
2022-11-16T21:16:06.761Z,14.26
2022-11-16T21:18:34.064Z,13.79
2022-11-16T21:21:01.787Z,14.51
2022-11-16T21:23:30.483Z,14.75
2022-11-16T21:26:04.523Z,15.03
2022-11-16T21:28:31.986Z,15.29
2022-11-16T21:30:59.877Z,14.98
2022-11-16T21:33:27.234Z,15.16
2022-11-16T21:35:54.788Z,15.14
2022-11-16T21:38:22.398Z,14.16
2022-11-16T21:40:49.679Z,14.70
2022-11-16T21:43:17.222Z,14.34
2022-11-16T21:45:44.807Z,14.93
2022-11-16T21:48:12.182Z,15.17
2022-11-16T21:50:39.596Z,14.79
2022-11-16T21:53:07.211Z,14.50
2022-11-16T21:55:34.413Z,14.98
2022-11-16T21:58:03.602Z,14.86
2022-11-16T22:00:30.749Z,14.63
2022-11-16T22:02:58.129Z,14.03
2022-11-16T22:05:44.137Z,14.55
2022-11-16T22:08:14.230Z,14.16
2022-11-16T22:10:41.374Z,13.97
2022-11-16T22:13:08.468Z,14.55
2022-11-16T22:15:35.833Z,13.02
2022-11-16T22:18:02.980Z,13.86
2022-11-16T22:20:30.076Z,14.17
2022-11-16T22:22:57.459Z,14.97
2022-11-16T22:25:24.676Z,14.69
2022-11-16T22:28:19.234Z,14.56
2022-11-16T22:30:39.314Z,14.67
2022-11-16T22:33:06.413Z,13.98
2022-11-16T22:35:33.508Z,14.57
2022-11-16T22:38:01.978Z,14.74
2022-11-16T22:40:29.082Z,14.72
2022-11-16T22:42:56.687Z,14.24
2022-11-16T22:45:24.963Z,14.45
2022-11-16T22:47:54.936Z,14.21
2022-11-16T22:50:24.080Z,15.29
2022-11-16T22:52:51.451Z,15.29
2022-11-16T22:55:18.572Z,15.44
2022-11-16T22:57:45.674Z,15.31
2022-11-16T23:00:13.714Z,15.75
2022-11-16T23:02:41.132Z,15.70
2022-11-16T23:05:08.263Z,15.99
2022-11-16T23:07:35.945Z,16.07
2022-11-16T23:10:03.540Z,15.95
2022-11-16T23:12:49.391Z,15.96
2022-11-16T23:15:35.395Z,16.26
2022-11-16T23:18:02.518Z,15.54
2022-11-16T23:20:48.990Z,15.29
2022-11-16T23:23:37.685Z,15.31
2022-11-16T23:26:23.975Z,15.49
2022-11-16T23:28:51.086Z,14.65
2022-11-16T23:31:18.480Z,15.32
2022-11-16T23:33:45.701Z,15.19
2022-11-16T23:36:12.869Z,13.74
2022-11-16T23:38:40.244Z,14.70
2022-11-16T23:41:40.032Z,14.27
2022-11-16T23:44:07.404Z,14.07
2022-11-16T23:46:34.515Z,14.71
2022-11-16T23:49:02.115Z,15.09
2022-11-16T23:51:29.488Z,14.34
2022-11-16T23:53:56.682Z,13.74
2022-11-16T23:56:23.804Z,14.26
2022-11-16T23:58:51.182Z,14.34
